Terminal Aerodrome Forecast
Issued by NWS

Home | Current Version | Previous Version | Text Only | Print | Product List | Glossary On
Versions: 1 2 3 4 5 6 7 8 9 10 11 12 13 14 15 16 17 18
000
FTUS43 KMPX 260538
TAFRNH
TAF
KRNH 260538Z 2606/2706 VRB05KT P6SM SCT020 BKN200
     FM260900 VRB04KT 2SM BR SCT020
     FM261200 34004KT P6SM SCT008 OVC012
     FM261700 02003KT P6SM VCTS SCT020 OVC050CB
     FM270000 34004KT P6SM BKN050=

USA.gov is the U.S. government's official web portal to all federal, state and local government web resources and services.